createdAt,value
2022-09-09T00:00:41.395Z,97904.91
2022-09-09T00:02:51.888Z,97909.47
2022-09-09T00:05:16.251Z,97901.69
2022-09-09T00:07:29.002Z,97901.91
2022-09-09T00:09:39.159Z,97898.44
2022-09-09T00:11:46.525Z,97896.16
2022-09-09T00:13:57.777Z,97896.38
2022-09-09T00:16:08.112Z,97896.75
2022-09-09T00:18:24.926Z,97892.53
2022-09-09T00:20:39.826Z,97887.59
2022-09-09T00:22:51.932Z,97891.28
2022-09-09T00:24:58.539Z,97892.25
2022-09-09T00:27:08.422Z,97892.38
2022-09-09T00:29:23.389Z,97893.44
2022-09-09T00:31:32.634Z,97895.03
2022-09-09T00:33:38.627Z,97887.84
2022-09-09T00:35:49.011Z,97892.41
2022-09-09T00:37:57.834Z,97890.28
2022-09-09T00:40:06.122Z,97887.66
2022-09-09T00:42:18.608Z,97887.66
2022-09-09T00:44:35.688Z,97893.88
2022-09-09T00:46:57.169Z,97891.47
2022-09-09T00:49:13.087Z,97882.34
2022-09-09T00:51:30.574Z,97890.25
2022-09-09T00:53:43.118Z,97890.38
2022-09-09T00:55:53.062Z,97886.03
2022-09-09T00:57:57.975Z,97889.75
2022-09-09T01:00:22.406Z,97888.06
2022-09-09T01:02:32.501Z,97883.88
2022-09-09T01:04:40.481Z,97884.22
2022-09-09T01:06:54.447Z,97890.59
2022-09-09T01:09:29.842Z,97895.16
2022-09-09T01:11:41.036Z,97897.03
2022-09-09T01:13:48.945Z,97894.28
2022-09-09T01:15:58.507Z,97890.59
2022-09-09T01:18:11.116Z,97897.59
2022-09-09T01:20:25.288Z,97893.59
2022-09-09T01:22:41.089Z,97894.41
2022-09-09T01:24:58.430Z,97903.28
2022-09-09T01:27:27.312Z,97898.44
2022-09-09T01:29:32.623Z,97904.88
2022-09-09T01:31:42.038Z,97905.00
2022-09-09T01:33:47.500Z,97902.69
2022-09-09T01:35:57.361Z,97905.41
2022-09-09T01:38:06.678Z,97901.56
2022-09-09T01:40:13.034Z,97896.31
2022-09-09T01:42:20.386Z,97900.59
2022-09-09T01:44:29.544Z,97898.63
2022-09-09T01:46:34.402Z,97900.16
2022-09-09T01:48:39.752Z,97897.22
2022-09-09T01:50:47.319Z,97898.03
2022-09-09T01:52:54.964Z,97892.69
2022-09-09T01:55:03.622Z,97892.34
2022-09-09T01:57:22.246Z,97898.22
2022-09-09T01:59:45.918Z,97894.41
2022-09-09T02:02:06.586Z,97891.06
2022-09-09T02:04:21.818Z,97884.00
2022-09-09T02:06:34.430Z,97889.91
2022-09-09T02:08:52.118Z,97889.72
2022-09-09T02:11:03.268Z,97890.41
2022-09-09T02:13:17.769Z,97888.66
2022-09-09T02:15:32.074Z,97890.53
2022-09-09T02:17:40.760Z,97888.19
2022-09-09T02:19:58.732Z,97883.91
2022-09-09T02:22:15.542Z,97887.72
2022-09-09T02:24:20.393Z,97885.19
2022-09-09T02:26:33.285Z,97883.53
2022-09-09T02:28:44.806Z,97883.53
2022-09-09T02:30:56.417Z,97879.84
2022-09-09T02:33:11.647Z,97877.69
2022-09-09T02:35:27.727Z,97876.56
2022-09-09T02:37:38.951Z,97863.41
2022-09-09T02:39:44.050Z,97878.22
2022-09-09T02:41:52.196Z,97881.06
2022-09-09T02:43:58.019Z,97884.75
2022-09-09T02:46:12.053Z,97887.22
2022-09-09T02:48:26.785Z,97886.16
2022-09-09T02:50:37.790Z,97885.28
2022-09-09T02:52:54.639Z,97896.31
2022-09-09T02:55:08.087Z,97888.34
2022-09-09T02:57:17.215Z,97883.06
2022-09-09T02:59:26.299Z,97877.06
2022-09-09T03:01:36.745Z,97881.00
2022-09-09T03:03:42.553Z,97885.41
2022-09-09T03:05:51.694Z,97894.13
2022-09-09T03:07:56.421Z,97895.78
2022-09-09T03:10:01.624Z,97891.28
2022-09-09T03:12:08.220Z,97884.00
2022-09-09T03:14:13.777Z,97882.94
2022-09-09T03:16:19.192Z,97884.63
2022-09-09T03:18:29.940Z,97886.41
2022-09-09T03:20:35.951Z,97883.06
2022-09-09T03:22:46.072Z,97885.09
2022-09-09T03:24:50.838Z,97882.66
2022-09-09T03:26:56.875Z,97878.59
2022-09-09T03:29:01.693Z,97878.06
2022-09-09T03:31:11.501Z,97870.53
2022-09-09T03:33:18.998Z,97876.34
2022-09-09T03:35:27.712Z,97881.38
2022-09-09T03:37:32.824Z,97880.44
2022-09-09T03:39:37.407Z,97878.22
2022-09-09T03:41:42.406Z,97880.38
2022-09-09T03:43:48.242Z,97878.81
2022-09-09T03:45:53.956Z,97875.34
2022-09-09T03:47:58.831Z,97878.81
2022-09-09T03:50:05.222Z,97881.31
2022-09-09T03:52:13.451Z,97883.84
2022-09-09T03:54:18.662Z,97878.56
2022-09-09T03:56:23.407Z,97884.66
2022-09-09T03:58:29.381Z,97875.81
2022-09-09T04:00:46.272Z,97875.72
2022-09-09T04:02:51.100Z,97872.88
2022-09-09T04:04:56.463Z,97878.00
2022-09-09T04:07:01.377Z,97867.63
2022-09-09T04:09:08.919Z,97877.06
2022-09-09T04:11:14.087Z,97862.88
2022-09-09T04:13:20.700Z,97871.38
2022-09-09T04:15:26.175Z,97868.13
2022-09-09T04:17:31.051Z,97866.06
2022-09-09T04:19:36.622Z,97870.56
2022-09-09T04:21:41.514Z,97872.94
2022-09-09T04:23:46.305Z,97883.44
2022-09-09T04:25:55.381Z,97882.47
2022-09-09T04:28:01.227Z,97881.75
2022-09-09T04:30:07.873Z,97881.13
2022-09-09T04:32:12.880Z,97875.34
2022-09-09T04:34:18.706Z,97874.00
2022-09-09T04:36:23.773Z,97872.22
2022-09-09T04:38:32.959Z,97871.38
2022-09-09T04:40:37.877Z,97868.97
2022-09-09T04:42:47.636Z,97875.50
2022-09-09T04:44:52.878Z,97873.09
2022-09-09T04:46:57.699Z,97868.16
2022-09-09T04:49:02.625Z,97871.84
2022-09-09T04:51:14.846Z,97870.28
2022-09-09T04:53:20.666Z,97875.09
2022-09-09T04:55:25.453Z,97876.53
2022-09-09T04:57:30.225Z,97881.56
2022-09-09T04:59:37.802Z,97889.03
2022-09-09T05:01:42.721Z,97893.22
2022-09-09T05:03:48.790Z,97887.88
2022-09-09T05:05:57.818Z,97892.06
2022-09-09T05:08:05.957Z,97894.47
2022-09-09T05:10:11.779Z,97895.44
2022-09-09T05:12:17.586Z,97902.56
2022-09-09T05:14:28.504Z,97912.25
2022-09-09T05:16:36.116Z,97917.91
2022-09-09T05:18:41.090Z,97914.00
2022-09-09T05:20:46.608Z,97918.91
2022-09-09T05:22:51.555Z,97915.34
2022-09-09T05:24:56.433Z,97908.22
2022-09-09T05:27:03.282Z,97915.22
2022-09-09T05:29:09.358Z,97923.25
2022-09-09T05:31:15.995Z,97922.19
2022-09-09T05:33:25.024Z,97916.09
2022-09-09T05:35:31.209Z,97912.28
2022-09-09T05:37:36.098Z,97919.72
2022-09-09T05:39:41.377Z,97919.41
2022-09-09T05:41:46.233Z,97920.75
2022-09-09T05:43:51.129Z,97923.66
2022-09-09T05:46:08.655Z,97922.38
2022-09-09T05:48:13.811Z,97923.75
2022-09-09T05:50:21.329Z,97923.00
2022-09-09T05:52:27.314Z,97927.53
2022-09-09T05:54:33.718Z,97922.16
2022-09-09T05:56:38.719Z,97923.94
2022-09-09T05:58:48.063Z,97922.16
2022-09-09T06:00:53.178Z,97919.53
2022-09-09T06:02:58.515Z,97915.22
2022-09-09T06:05:04.126Z,97911.03
2022-09-09T06:07:11.537Z,97912.09
2022-09-09T06:09:16.510Z,97912.09
2022-09-09T06:11:23.451Z,97909.59
2022-09-09T06:13:28.261Z,97916.63
2022-09-09T06:15:33.557Z,97912.09
2022-09-09T06:17:38.253Z,97919.03
2022-09-09T06:19:43.018Z,97916.00
2022-09-09T06:21:48.887Z,97908.94
2022-09-09T06:24:00.882Z,97910.38
2022-09-09T06:26:09.444Z,97914.13
2022-09-09T06:28:14.614Z,97916.81
2022-09-09T06:30:20.425Z,97907.91
2022-09-09T06:32:25.275Z,97907.81
2022-09-09T06:34:30.007Z,97914.19
2022-09-09T06:36:39.217Z,97910.75
2022-09-09T06:38:43.962Z,97911.00
2022-09-09T06:40:59.172Z,97913.66
2022-09-09T06:43:04.645Z,97920.13
2022-09-09T06:45:20.339Z,97923.16
2022-09-09T06:47:32.484Z,97921.75
2022-09-09T06:49:37.295Z,97924.72
2022-09-09T06:51:46.229Z,97930.72
2022-09-09T06:53:55.463Z,97922.22
2022-09-09T06:56:04.963Z,97929.66
2022-09-09T06:58:12.117Z,97931.31
2022-09-09T07:00:18.072Z,97932.41
2022-09-09T07:02:22.926Z,97942.09
2022-09-09T07:04:27.852Z,97937.31
2022-09-09T07:06:35.264Z,97937.41
2022-09-09T07:08:40.910Z,97940.53
2022-09-09T07:10:45.906Z,97935.03
2022-09-09T07:12:56.545Z,97938.50
2022-09-09T07:15:03.413Z,97935.63
2022-09-09T07:17:08.317Z,97938.88
2022-09-09T07:19:17.418Z,97939.22
2022-09-09T07:21:23.702Z,97936.94
2022-09-09T07:23:31.316Z,97946.78
2022-09-09T07:25:38.207Z,97944.25
2022-09-09T07:27:43.019Z,97946.28
2022-09-09T07:29:50.502Z,97944.13
2022-09-09T07:31:56.492Z,97950.47
2022-09-09T07:34:07.291Z,97951.78
2022-09-09T07:36:16.381Z,97944.84
2022-09-09T07:38:21.536Z,97948.31
2022-09-09T07:40:26.596Z,97945.44
2022-09-09T07:42:31.960Z,97946.53
2022-09-09T07:44:37.437Z,97946.41
2022-09-09T07:46:49.660Z,97943.44
2022-09-09T07:49:01.278Z,97944.59
2022-09-09T07:51:10.193Z,97940.41
2022-09-09T07:53:15.426Z,97949.78
2022-09-09T07:55:20.652Z,97947.81
2022-09-09T07:57:25.678Z,97953.44
2022-09-09T07:59:31.915Z,97954.41
2022-09-09T08:01:40.491Z,97946.31
2022-09-09T08:03:55.981Z,97947.69
2022-09-09T08:06:05.307Z,97946.56
2022-09-09T08:08:10.182Z,97949.66
2022-09-09T08:10:15.730Z,97947.91
2022-09-09T08:12:21.031Z,97943.66
2022-09-09T08:14:26.846Z,97946.50
2022-09-09T08:16:33.790Z,97946.75
2022-09-09T08:18:40.215Z,97935.28
2022-09-09T08:20:47.572Z,97940.50
2022-09-09T08:22:53.688Z,97934.69
2022-09-09T08:24:59.054Z,97935.81
2022-09-09T08:27:04.049Z,97929.63
2022-09-09T08:29:11.608Z,97932.69
2022-09-09T08:31:19.026Z,97937.75
2022-09-09T08:33:23.934Z,97934.19
2022-09-09T08:35:32.288Z,97929.72
2022-09-09T08:37:39.813Z,97931.69
2022-09-09T08:39:44.694Z,97929.38
2022-09-09T08:42:19.035Z,97928.16
2022-09-09T08:44:34.922Z,97931.81
2022-09-09T08:46:57.080Z,97937.94
2022-09-09T08:49:09.882Z,97941.28
2022-09-09T08:51:16.976Z,97941.44
2022-09-09T08:53:31.414Z,97940.59
2022-09-09T08:55:44.540Z,97936.69
2022-09-09T08:57:49.737Z,97932.38
2022-09-09T08:59:56.351Z,97925.84
2022-09-09T09:02:16.495Z,97935.72
2022-09-09T09:04:37.824Z,97935.88
2022-09-09T09:06:53.272Z,97936.16
2022-09-09T09:09:06.588Z,97937.81
2022-09-09T09:11:11.474Z,97943.94
2022-09-09T09:13:22.190Z,97939.88
2022-09-09T09:15:35.581Z,97939.97
2022-09-09T09:17:41.499Z,97939.13
2022-09-09T09:19:47.857Z,97939.78
2022-09-09T09:21:58.069Z,97935.00
2022-09-09T09:24:11.035Z,97940.00
2022-09-09T09:26:15.918Z,97932.56
2022-09-09T09:28:23.077Z,97924.53
2022-09-09T09:30:39.067Z,97924.50
2022-09-09T09:32:56.011Z,97915.00
2022-09-09T09:35:05.734Z,97916.44
2022-09-09T09:37:21.197Z,97912.25
2022-09-09T09:41:56.109Z,97916.88
2022-09-09T09:44:01.738Z,97900.25
2022-09-09T09:46:17.543Z,97906.41
2022-09-09T09:48:24.288Z,97907.50
2022-09-09T09:50:29.201Z,97905.53
2022-09-09T09:52:37.806Z,97909.00
2022-09-09T09:54:48.018Z,97911.44
2022-09-09T09:56:52.886Z,97903.91
2022-09-09T09:58:59.814Z,97902.47
2022-09-09T10:01:26.135Z,97905.28
2022-09-09T10:03:33.061Z,97909.75
2022-09-09T10:05:40.083Z,97909.78
2022-09-09T10:07:49.599Z,97911.69
2022-09-09T10:09:59.315Z,97905.44
2022-09-09T10:12:15.221Z,97903.41
2022-09-09T10:14:25.443Z,97897.41
2022-09-09T10:16:46.248Z,97896.91
2022-09-09T10:19:02.741Z,97887.09
2022-09-09T10:21:21.850Z,97887.63
2022-09-09T10:23:45.450Z,97884.44
2022-09-09T10:26:20.745Z,97884.59
2022-09-09T10:29:00.468Z,97877.66
2022-09-09T10:31:20.588Z,97881.00
2022-09-09T10:33:32.808Z,97879.53
2022-09-09T10:35:42.211Z,97876.28
2022-09-09T10:38:02.673Z,97872.13
2022-09-09T10:40:25.753Z,97872.31
2022-09-09T10:42:35.714Z,97865.41
2022-09-09T10:44:58.590Z,97863.69
2022-09-09T10:47:21.613Z,97868.56
2022-09-09T10:49:42.837Z,97866.78
2022-09-09T10:52:00.089Z,97868.16
2022-09-09T10:54:24.104Z,97863.47
2022-09-09T10:56:30.157Z,97859.81
2022-09-09T10:58:44.463Z,97858.66
2022-09-09T11:00:58.037Z,97853.19
2022-09-09T11:03:05.238Z,97860.03
2022-09-09T11:05:19.436Z,97865.84
2022-09-09T11:07:32.681Z,97858.34
2022-09-09T11:09:45.517Z,97859.06
2022-09-09T11:11:54.931Z,97853.06
2022-09-09T11:14:09.586Z,97861.41
2022-09-09T11:16:26.994Z,97857.69
2022-09-09T11:18:35.602Z,97852.88
2022-09-09T11:20:40.865Z,97856.00
2022-09-09T11:22:52.234Z,97856.66
2022-09-09T11:25:03.969Z,97862.31
2022-09-09T11:27:15.918Z,97864.97
2022-09-09T11:29:48.956Z,97862.28
2022-09-09T11:32:05.427Z,97857.78
2022-09-09T11:34:28.730Z,97859.31
2022-09-09T11:36:47.059Z,97859.31
2022-09-09T11:38:55.699Z,97859.00
2022-09-09T11:41:03.183Z,97854.19
2022-09-09T11:43:13.910Z,97848.53
2022-09-09T11:45:30.585Z,97839.06
2022-09-09T11:47:35.418Z,97844.38
2022-09-09T11:49:46.665Z,97843.03
2022-09-09T11:51:51.411Z,97845.88
2022-09-09T11:53:59.741Z,97845.69
2022-09-09T11:56:14.515Z,97849.00
2022-09-09T11:58:21.873Z,97845.69
2022-09-09T12:00:42.614Z,97848.00
2022-09-09T12:02:53.481Z,97847.81
2022-09-09T12:05:06.645Z,97851.63
2022-09-09T12:07:30.239Z,97851.97
2022-09-09T12:09:49.878Z,97849.66
2022-09-09T12:11:54.763Z,97851.78
2022-09-09T12:14:01.828Z,97842.63
2022-09-09T12:16:09.283Z,97840.25
2022-09-09T12:18:26.376Z,97835.50
2022-09-09T12:20:37.850Z,97832.31
2022-09-09T12:22:55.507Z,97839.97
2022-09-09T12:25:09.053Z,97835.25
2022-09-09T12:27:22.428Z,97832.78
2022-09-09T12:29:32.475Z,97825.28
2022-09-09T12:31:48.003Z,97827.63
2022-09-09T12:33:53.691Z,97822.44
2022-09-09T12:36:01.750Z,97824.06
2022-09-09T12:38:08.435Z,97822.22
2022-09-09T12:40:25.361Z,97828.03
2022-09-09T12:42:31.188Z,97834.69
2022-09-09T12:44:36.109Z,97842.66
2022-09-09T12:46:44.571Z,97848.03
2022-09-09T12:48:49.391Z,97835.06
2022-09-09T12:50:57.310Z,97838.84
2022-09-09T12:53:05.051Z,97847.47
2022-09-09T12:55:11.898Z,97883.06
2022-09-09T12:57:18.359Z,97898.06
2022-09-09T12:59:28.246Z,97900.06
2022-09-09T13:01:36.560Z,97900.75
2022-09-09T13:03:49.871Z,97907.84
2022-09-09T13:05:56.780Z,97910.22
2022-09-09T13:08:05.856Z,97909.97
2022-09-09T13:10:18.085Z,97902.09
2022-09-09T13:12:30.636Z,97885.22
2022-09-09T13:14:40.059Z,97871.13
2022-09-09T13:16:44.876Z,97854.69
2022-09-09T13:18:53.400Z,97853.03
2022-09-09T13:20:59.654Z,97850.78
2022-09-09T13:23:04.453Z,97852.56
2022-09-09T13:25:21.947Z,97846.69
2022-09-09T13:27:32.495Z,97856.63
2022-09-09T13:29:38.317Z,97860.81
2022-09-09T13:31:43.927Z,97854.63
2022-09-09T13:33:49.153Z,97855.72
2022-09-09T13:36:00.195Z,97853.47
2022-09-09T13:38:12.729Z,97834.28
2022-09-09T13:40:23.136Z,97832.75
2022-09-09T13:42:31.013Z,97830.00
2022-09-09T13:44:40.476Z,97819.44
2022-09-09T13:46:46.380Z,97818.53
2022-09-09T13:48:58.181Z,97812.13
2022-09-09T13:51:08.949Z,97819.13
2022-09-09T13:53:13.868Z,97814.97
2022-09-09T13:55:18.711Z,97811.63
2022-09-09T13:57:26.274Z,97820.38
2022-09-09T13:59:53.989Z,97819.25
2022-09-09T14:01:55.950Z,97824.28
2022-09-09T14:04:01.270Z,97820.03
2022-09-09T14:06:08.709Z,97815.72
2022-09-09T14:08:20.367Z,97807.97
2022-09-09T14:10:25.109Z,97811.84
2022-09-09T14:12:30.154Z,97815.75
2022-09-09T14:14:34.654Z,97813.69
2022-09-09T14:16:39.472Z,97821.56
2022-09-09T14:18:45.079Z,97825.63
2022-09-09T14:20:49.827Z,97813.13
2022-09-09T14:23:03.323Z,97806.94
2022-09-09T14:25:09.853Z,97811.53
2022-09-09T14:27:14.628Z,97809.69
2022-09-09T14:29:19.397Z,97814.69
2022-09-09T14:31:24.512Z,97821.06
2022-09-09T14:33:30.145Z,97825.75
2022-09-09T14:35:34.884Z,97833.88
2022-09-09T14:37:40.472Z,97833.94
2022-09-09T14:39:48.183Z,97855.44
2022-09-09T14:41:53.095Z,97845.88
2022-09-09T14:43:58.262Z,97851.44
2022-09-09T14:46:08.110Z,97850.94
2022-09-09T14:48:13.294Z,97847.31
2022-09-09T14:50:18.237Z,97854.28
2022-09-09T14:52:23.006Z,97856.25
2022-09-09T14:54:27.922Z,97851.09
2022-09-09T14:56:37.426Z,97854.72
2022-09-09T14:58:42.200Z,97854.03
2022-09-09T15:00:46.944Z,97850.41
2022-09-09T15:02:51.755Z,97847.25
2022-09-09T15:04:58.365Z,97841.38
2022-09-09T15:07:03.668Z,97839.94
2022-09-09T15:09:09.276Z,97846.56
2022-09-09T15:11:15.400Z,97833.97
2022-09-09T15:13:22.807Z,97836.13
2022-09-09T15:15:27.857Z,97835.72
2022-09-09T15:17:32.615Z,97833.59
2022-09-09T15:19:37.690Z,97823.88
2022-09-09T15:21:42.225Z,97823.13
2022-09-09T15:23:48.234Z,97817.41
2022-09-09T15:25:56.823Z,97817.03
2022-09-09T15:28:01.665Z,97811.91
2022-09-09T15:30:10.267Z,97819.13
2022-09-09T15:32:15.040Z,97815.41
2022-09-09T15:34:19.937Z,97826.16
2022-09-09T15:36:26.345Z,97826.88
2022-09-09T15:38:31.194Z,97820.22
2022-09-09T15:40:36.026Z,97814.13
2022-09-09T15:42:40.770Z,97813.47
2022-09-09T15:44:46.108Z,97808.31
2022-09-09T15:46:55.162Z,97803.19
2022-09-09T15:49:02.018Z,97800.00
2022-09-09T15:51:24.858Z,97799.25
2022-09-09T15:53:33.425Z,97792.66
2022-09-09T15:55:38.255Z,97793.09
2022-09-09T15:57:43.300Z,97800.06
2022-09-09T15:59:47.893Z,97796.38
2022-09-09T16:01:56.106Z,97796.94
2022-09-09T16:04:02.280Z,97800.66
2022-09-09T16:06:08.082Z,97803.09
2022-09-09T16:08:12.831Z,97810.72
2022-09-09T16:10:17.731Z,97817.13
2022-09-09T16:12:22.478Z,97805.78
2022-09-09T16:14:28.005Z,97808.69
2022-09-09T16:16:33.712Z,97810.19
2022-09-09T16:18:46.453Z,97813.25
2022-09-09T16:20:57.740Z,97814.94
2022-09-09T16:23:03.063Z,97818.25
2022-09-09T16:25:08.645Z,97822.19
2022-09-09T16:27:13.521Z,97825.97
2022-09-09T16:29:19.781Z,97827.81
2022-09-09T16:31:26.327Z,97829.22
2022-09-09T16:33:31.734Z,97837.09
2022-09-09T16:35:41.157Z,97832.22
2022-09-09T16:37:45.854Z,97834.91
2022-09-09T16:39:51.509Z,97836.31
2022-09-09T16:41:56.301Z,97838.44
2022-09-09T16:44:03.396Z,97837.75
2022-09-09T16:46:17.695Z,97848.34
2022-09-09T16:48:22.545Z,97846.09
2022-09-09T16:50:27.312Z,97854.03
2022-09-09T16:52:34.902Z,97866.72
2022-09-09T16:54:39.618Z,97861.41
2022-09-09T16:56:46.593Z,97864.91
2022-09-09T16:58:55.299Z,97872.00
2022-09-09T17:01:02.898Z,97880.13
2022-09-09T17:03:07.915Z,97875.38
2022-09-09T17:05:13.112Z,97871.78
2022-09-09T17:07:19.629Z,97874.97
2022-09-09T17:09:30.100Z,97875.38
2022-09-09T17:11:35.279Z,97872.19
2022-09-09T17:13:40.120Z,97878.88
2022-09-09T17:15:46.255Z,97880.69
2022-09-09T17:17:53.694Z,97887.81
2022-09-09T17:19:58.715Z,97890.84
2022-09-09T17:22:16.676Z,97890.31
2022-09-09T17:24:22.832Z,97886.94
2022-09-09T17:26:32.457Z,97896.84
2022-09-09T17:28:38.060Z,97889.75
2022-09-09T17:30:42.872Z,97887.38
2022-09-09T17:32:47.878Z,97890.88
2022-09-09T17:34:53.572Z,97899.09
2022-09-09T17:36:58.357Z,97895.03
2022-09-09T17:39:04.411Z,97896.72
2022-09-09T17:41:11.850Z,97903.69
2022-09-09T17:43:19.993Z,97895.75
2022-09-09T17:45:24.751Z,97901.44
2022-09-09T17:47:31.749Z,97892.25
2022-09-09T17:49:36.628Z,97897.66
2022-09-09T17:51:42.704Z,97899.19
2022-09-09T17:53:50.342Z,97902.22
2022-09-09T17:55:56.542Z,97897.72
2022-09-09T17:58:01.271Z,97898.00
2022-09-09T18:00:11.349Z,97905.22
2022-09-09T18:02:19.238Z,97906.91
2022-09-09T18:04:24.354Z,97914.56
2022-09-09T18:06:31.753Z,97913.59
2022-09-09T18:08:37.270Z,97920.41
2022-09-09T18:10:42.168Z,97921.13
2022-09-09T18:12:46.939Z,97922.66
2022-09-09T18:14:52.548Z,97924.38
2022-09-09T18:17:00.329Z,97921.97
2022-09-09T18:19:06.422Z,97935.31
2022-09-09T18:21:12.378Z,97943.50
2022-09-09T18:23:17.104Z,97947.50
2022-09-09T18:25:21.886Z,97959.34
2022-09-09T18:27:26.666Z,97967.13
2022-09-09T18:29:31.412Z,97972.88
2022-09-09T18:31:37.928Z,98001.44
2022-09-09T18:33:49.190Z,98030.38
2022-09-09T18:35:53.927Z,98000.66
2022-09-09T18:37:58.706Z,98008.06
2022-09-09T18:40:03.509Z,98006.66
2022-09-09T18:42:08.497Z,98006.50
2022-09-09T18:44:16.242Z,97986.63
2022-09-09T18:46:22.499Z,97986.97
2022-09-09T18:48:27.273Z,97986.97
2022-09-09T18:50:34.686Z,97992.88
2022-09-09T18:52:39.478Z,97990.94
2022-09-09T18:54:46.144Z,97984.81
2022-09-09T18:56:51.356Z,97975.59
2022-09-09T18:58:58.146Z,97977.88
2022-09-09T19:01:03.759Z,97976.44
2022-09-09T19:03:08.605Z,97976.31
2022-09-09T19:05:13.416Z,97987.56
2022-09-09T19:07:21.849Z,97989.97
2022-09-09T19:09:28.798Z,98009.13
2022-09-09T19:11:33.877Z,98032.56
2022-09-09T19:13:38.992Z,98018.38
2022-09-09T19:15:44.037Z,98028.44
2022-09-09T19:17:48.822Z,98033.56
2022-09-09T19:19:54.995Z,98024.47
2022-09-09T19:21:59.707Z,98028.59
2022-09-09T19:24:08.993Z,98030.03
2022-09-09T19:26:16.408Z,98022.03
2022-09-09T19:28:21.231Z,98027.31
2022-09-09T19:30:26.402Z,98034.75
2022-09-09T19:32:52.749Z,98034.75
2022-09-09T19:34:55.832Z,98041.56
2022-09-09T19:37:00.752Z,98036.16
2022-09-09T19:39:09.372Z,98046.25
2022-09-09T19:41:16.128Z,98046.75
2022-09-09T19:43:20.882Z,98049.72
2022-09-09T19:45:25.611Z,98052.75
2022-09-09T19:47:30.483Z,98053.34
2022-09-09T19:49:36.517Z,98057.56
2022-09-09T19:51:41.789Z,98062.09
2022-09-09T19:53:49.204Z,98054.44
2022-09-09T19:55:56.596Z,98052.88
2022-09-09T19:58:02.004Z,98049.63
2022-09-09T20:00:08.758Z,98048.78
2022-09-09T20:02:18.259Z,98041.63
2022-09-09T20:04:23.252Z,98043.28
2022-09-09T20:06:30.037Z,98044.03
2022-09-09T20:08:35.068Z,98036.13
2022-09-09T20:10:39.822Z,98038.84
2022-09-09T20:12:47.134Z,98035.16
2022-09-09T20:14:51.899Z,98037.66
2022-09-09T20:16:56.662Z,98040.41
2022-09-09T20:19:03.934Z,98048.31
2022-09-09T20:21:13.133Z,98050.13
2022-09-09T20:23:18.735Z,98057.19
2022-09-09T20:25:24.593Z,98052.25
2022-09-09T20:27:29.483Z,98056.56
2022-09-09T20:29:36.785Z,98062.06
2022-09-09T20:31:43.151Z,98073.22
2022-09-09T20:33:48.035Z,98070.81
2022-09-09T20:35:53.991Z,98074.00
2022-09-09T20:37:58.693Z,98081.91
2022-09-09T20:40:03.716Z,98077.47
2022-09-09T20:42:08.869Z,98069.34
2022-09-09T20:44:14.652Z,98065.38
2022-09-09T20:46:24.269Z,98063.44
2022-09-09T20:48:28.986Z,98062.84
2022-09-09T20:50:34.174Z,98062.06
2022-09-09T20:52:38.704Z,98061.47
2022-09-09T20:54:43.415Z,98062.44
2022-09-09T20:56:50.404Z,98065.06
2022-09-09T20:58:55.796Z,98063.59
2022-09-09T21:01:01.091Z,98058.31
2022-09-09T21:03:08.500Z,98046.34
2022-09-09T21:05:13.997Z,98048.38
2022-09-09T21:07:18.716Z,98047.97
2022-09-09T21:09:25.296Z,98050.97
2022-09-09T21:11:30.059Z,98050.31
2022-09-09T21:13:37.023Z,98051.13
2022-09-09T21:15:42.306Z,98051.44
2022-09-09T21:17:47.099Z,98043.41
2022-09-09T21:19:57.185Z,98049.72
2022-09-09T21:22:02.278Z,98060.56
2022-09-09T21:24:07.944Z,98057.31
2022-09-09T21:26:13.025Z,98059.44
2022-09-09T21:28:19.161Z,98063.00
2022-09-09T21:30:32.922Z,98063.34
2022-09-09T21:32:41.695Z,98068.09
2022-09-09T21:34:46.519Z,98080.72
2022-09-09T21:36:54.055Z,98073.44
2022-09-09T21:38:59.355Z,98076.00
2022-09-09T21:41:06.189Z,98074.19
2022-09-09T21:43:13.186Z,98071.78
2022-09-09T21:45:20.098Z,98071.78
2022-09-09T21:47:25.129Z,98074.06
2022-09-09T21:49:29.891Z,98074.72
2022-09-09T21:51:34.682Z,98078.19
2022-09-09T21:53:42.057Z,98067.22
2022-09-09T21:55:48.681Z,98067.97
2022-09-09T21:57:53.410Z,98068.44
2022-09-09T21:59:58.501Z,98068.34
2022-09-09T22:02:03.344Z,98070.63
2022-09-09T22:04:08.116Z,98066.56
2022-09-09T22:06:15.109Z,98075.06
2022-09-09T22:08:20.524Z,98068.00
2022-09-09T22:10:28.600Z,98067.91
2022-09-09T22:12:34.450Z,98073.50
2022-09-09T22:14:39.260Z,98074.56
2022-09-09T22:16:44.048Z,98075.72
2022-09-09T22:18:53.914Z,98067.09
2022-09-09T22:20:58.898Z,98068.88
2022-09-09T22:23:04.284Z,98070.16
2022-09-09T22:25:10.594Z,98066.31
2022-09-09T22:27:18.459Z,98082.63
2022-09-09T22:29:23.194Z,98087.47
2022-09-09T22:31:28.871Z,98087.34
2022-09-09T22:33:33.660Z,98085.47
2022-09-09T22:35:43.404Z,98090.72
2022-09-09T22:37:48.325Z,98086.41
2022-09-09T22:39:53.403Z,98087.47
2022-09-09T22:41:58.458Z,98087.47
2022-09-09T22:44:06.100Z,98095.16
2022-09-09T22:46:10.848Z,98095.88
2022-09-09T22:48:16.694Z,98089.06
2022-09-09T22:50:21.462Z,98097.69
2022-09-09T22:52:26.180Z,98095.88
2022-09-09T22:54:31.114Z,98097.47
2022-09-09T22:56:35.867Z,98092.81
2022-09-09T22:58:40.676Z,98087.44
2022-09-09T23:00:48.006Z,98088.19
2022-09-09T23:02:52.813Z,98092.16
2022-09-09T23:05:00.458Z,98081.66
2022-09-09T23:07:06.893Z,98082.25
2022-09-09T23:09:14.784Z,98081.34
2022-09-09T23:11:20.316Z,98079.75
2022-09-09T23:13:25.947Z,98086.06
2022-09-09T23:15:31.556Z,98089.00
2022-09-09T23:17:39.011Z,98079.69
2022-09-09T23:19:43.717Z,98081.69
2022-09-09T23:21:50.841Z,98080.81
2022-09-09T23:23:56.924Z,98088.50
2022-09-09T23:26:05.383Z,98083.22
2022-09-09T23:28:10.216Z,98079.78
2022-09-09T23:30:15.914Z,98080.50
2022-09-09T23:32:20.716Z,98079.69
2022-09-09T23:34:28.119Z,98081.03
2022-09-09T23:36:33.427Z,98088.78
2022-09-09T23:38:39.437Z,98084.50
2022-09-09T23:40:47.267Z,98079.56
2022-09-09T23:42:52.022Z,98074.63
2022-09-09T23:44:57.486Z,98079.78
2022-09-09T23:47:02.218Z,98070.81
2022-09-09T23:49:08.399Z,98067.97
2022-09-09T23:51:18.046Z,98069.47
2022-09-09T23:53:22.896Z,98064.06
2022-09-09T23:55:27.777Z,98065.66
2022-09-09T23:57:32.574Z,98057.53
2022-09-09T23:59:37.609Z,98051.09
